createdAt,value
2023-02-22T00:01:51.676Z,44.80
2023-02-22T00:04:23.165Z,43.08
2023-02-22T00:06:53.334Z,44.63
2023-02-22T00:09:24.233Z,43.75
2023-02-22T00:11:53.613Z,46.08
2023-02-22T00:14:26.437Z,48.90
2023-02-22T00:17:00.205Z,40.95
2023-02-22T00:19:31.073Z,42.25
2023-02-22T00:22:00.697Z,46.65
2023-02-22T00:24:33.457Z,48.40
2023-02-22T00:27:03.726Z,48.15
2023-02-22T00:29:35.722Z,51.10
2023-02-22T00:32:04.973Z,49.08
2023-02-22T00:34:36.089Z,58.58
2023-02-22T00:37:05.769Z,54.35
2023-02-22T00:39:37.661Z,51.38
2023-02-22T00:42:06.920Z,50.95
2023-02-22T00:44:36.363Z,41.90
2023-02-22T00:47:05.127Z,44.45
2023-02-22T00:49:35.297Z,44.10
2023-02-22T00:52:05.098Z,40.45
2023-02-22T00:54:35.779Z,42.78
2023-02-22T00:57:05.252Z,42.28
2023-02-22T00:59:36.939Z,46.25
2023-02-22T01:02:06.341Z,43.75
2023-02-22T01:04:36.521Z,45.88
2023-02-22T01:07:06.585Z,53.83
2023-02-22T01:09:39.708Z,42.20
2023-02-22T01:12:10.524Z,53.60
2023-02-22T01:14:43.165Z,44.85
2023-02-22T01:17:12.343Z,52.75
2023-02-22T01:19:42.628Z,47.70
2023-02-22T01:22:11.385Z,44.38
2023-02-22T01:24:41.994Z,54.05
2023-02-22T01:27:11.218Z,51.75
2023-02-22T01:29:41.712Z,50.05
2023-02-22T01:32:12.333Z,52.08
2023-02-22T01:34:41.898Z,47.85
2023-02-22T01:37:13.342Z,51.22
2023-02-22T01:39:44.010Z,49.85
2023-02-22T01:42:13.851Z,50.88
2023-02-22T01:44:44.144Z,49.03
2023-02-22T01:47:13.272Z,41.75
2023-02-22T01:49:45.871Z,44.95
2023-02-22T01:52:20.367Z,40.90
2023-02-22T01:54:53.675Z,39.60
2023-02-22T01:57:27.121Z,40.30
2023-02-22T02:00:01.364Z,39.85
2023-02-22T02:02:31.138Z,34.83
2023-02-22T02:05:00.601Z,31.27
2023-02-22T02:07:31.277Z,39.70
2023-02-22T02:10:05.521Z,31.42
2023-02-22T02:12:37.305Z,30.30
2023-02-22T02:15:21.552Z,27.52
2023-02-22T02:17:52.574Z,24.27
2023-02-22T02:20:29.863Z,22.77
2023-02-22T02:23:09.581Z,20.20
2023-02-22T02:26:17.320Z,21.95
2023-02-22T02:29:18.425Z,21.83
2023-02-22T02:32:21.344Z,24.67
2023-02-22T02:35:00.829Z,22.23
2023-02-22T02:37:44.219Z,25.00
2023-02-22T02:40:21.334Z,25.35
2023-02-22T02:42:59.534Z,27.48
2023-02-22T02:45:34.960Z,26.33
2023-02-22T02:48:10.313Z,25.63
2023-02-22T02:50:45.241Z,24.75
2023-02-22T02:53:18.369Z,23.92
2023-02-22T02:55:47.502Z,21.02
2023-02-22T02:58:21.667Z,22.65
2023-02-22T03:00:55.854Z,20.65
2023-02-22T03:03:45.186Z,22.23
2023-02-22T03:06:49.376Z,24.38
2023-02-22T03:09:29.539Z,24.42
2023-02-22T03:12:09.441Z,24.75
2023-02-22T03:14:43.514Z,24.55
2023-02-22T03:17:19.603Z,24.67
2023-02-22T03:19:55.904Z,23.17
2023-02-22T03:22:32.689Z,24.02
2023-02-22T03:25:09.188Z,22.25
2023-02-22T03:27:44.265Z,22.00
2023-02-22T03:30:20.713Z,23.85
2023-02-22T03:32:54.902Z,22.25
2023-02-22T03:35:35.225Z,28.08
2023-02-22T03:38:09.882Z,27.65
2023-02-22T03:40:44.925Z,23.70
2023-02-22T03:43:20.242Z,27.95
2023-02-22T03:45:52.562Z,24.50
2023-02-22T03:48:27.640Z,25.77
2023-02-22T03:51:04.716Z,25.73
2023-02-22T03:53:37.387Z,24.70
2023-02-22T03:56:12.938Z,23.63
2023-02-22T03:58:46.064Z,23.63
2023-02-22T04:01:15.852Z,26.42
2023-02-22T04:03:46.600Z,26.98
2023-02-22T04:06:18.093Z,26.20
2023-02-22T04:08:48.369Z,28.92
2023-02-22T04:11:18.130Z,25.20
2023-02-22T04:13:47.565Z,22.02
2023-02-22T04:16:17.074Z,37.47
2023-02-22T04:18:46.803Z,26.08
2023-02-22T04:21:21.229Z,24.80
2023-02-22T04:23:53.063Z,25.48
2023-02-22T04:26:22.596Z,25.42
2023-02-22T04:28:57.196Z,26.60
2023-02-22T04:31:28.653Z,24.33
2023-02-22T04:34:02.023Z,28.27
2023-02-22T04:36:43.813Z,27.90
2023-02-22T04:39:13.692Z,27.73
2023-02-22T04:41:43.178Z,28.27
2023-02-22T04:44:15.090Z,27.50
2023-02-22T04:46:46.845Z,28.73
2023-02-22T04:49:17.874Z,29.02
2023-02-22T04:51:51.531Z,29.02
2023-02-22T04:54:25.114Z,30.92
2023-02-22T04:56:54.997Z,27.83
2023-02-22T04:59:24.657Z,30.67
2023-02-22T05:02:02.204Z,28.50
2023-02-22T05:04:31.344Z,28.10
2023-02-22T05:07:02.872Z,24.33
2023-02-22T05:09:32.221Z,25.02
2023-02-22T05:12:02.274Z,22.48
2023-02-22T05:14:33.594Z,26.65
2023-02-22T05:17:03.095Z,22.30
2023-02-22T05:19:32.397Z,25.65
2023-02-22T05:22:05.939Z,25.30
2023-02-22T05:24:35.490Z,28.58
2023-02-22T05:27:04.445Z,24.45
2023-02-22T05:29:34.488Z,23.20
2023-02-22T05:32:08.392Z,22.13
2023-02-22T05:34:37.485Z,21.10
2023-02-22T05:37:08.423Z,25.60
2023-02-22T05:39:37.425Z,25.25
2023-02-22T05:42:07.296Z,24.60
2023-02-22T05:44:36.479Z,25.10
2023-02-22T05:47:05.514Z,27.35
2023-02-22T05:49:34.912Z,25.33
2023-02-22T05:52:03.837Z,21.73
2023-02-22T05:54:34.779Z,21.20
2023-02-22T05:57:03.565Z,22.95
2023-02-22T05:59:32.383Z,27.42
2023-02-22T06:02:01.308Z,25.83
2023-02-22T06:04:30.690Z,24.33
2023-02-22T06:06:59.875Z,23.73
2023-02-22T06:09:29.144Z,27.73
2023-02-22T06:12:00.003Z,27.50
2023-02-22T06:14:29.092Z,30.90
2023-02-22T06:16:59.372Z,27.55
2023-02-22T06:19:29.720Z,25.17
2023-02-22T06:22:00.227Z,34.85
2023-02-22T06:24:29.141Z,32.15
2023-02-22T06:27:01.000Z,32.92
2023-02-22T06:29:30.801Z,30.23
2023-02-22T06:31:59.796Z,33.60
2023-02-22T06:34:28.857Z,31.73
2023-02-22T06:37:01.449Z,31.08
2023-02-22T06:39:30.354Z,30.25
2023-02-22T06:42:01.475Z,32.47
2023-02-22T06:44:30.560Z,25.33
2023-02-22T06:46:59.830Z,31.17
2023-02-22T06:49:29.036Z,33.08
2023-02-22T06:51:57.918Z,31.70
2023-02-22T06:54:27.303Z,29.08
2023-02-22T06:56:56.123Z,29.63
2023-02-22T06:59:26.541Z,31.35
2023-02-22T07:01:56.268Z,29.55
2023-02-22T07:04:25.139Z,40.05
2023-02-22T07:06:54.678Z,37.75
2023-02-22T07:09:23.673Z,31.63
2023-02-22T07:11:52.620Z,33.45
2023-02-22T07:14:21.815Z,33.15
2023-02-22T07:16:52.205Z,30.73
2023-02-22T07:19:21.371Z,31.60
2023-02-22T07:21:50.928Z,30.75
2023-02-22T07:24:19.906Z,33.20
2023-02-22T07:26:48.765Z,32.30
2023-02-22T07:29:17.957Z,30.52
2023-02-22T07:31:47.349Z,31.95
2023-02-22T07:34:18.139Z,34.63
2023-02-22T07:36:51.809Z,31.73
2023-02-22T07:39:21.577Z,30.27
2023-02-22T07:41:54.187Z,30.27
2023-02-22T07:44:28.049Z,26.00
2023-02-22T07:46:59.087Z,29.80
2023-02-22T07:49:37.047Z,29.55
2023-02-22T07:52:08.553Z,31.30
2023-02-22T07:54:38.008Z,30.02
2023-02-22T07:57:09.781Z,34.95
2023-02-22T07:59:39.426Z,26.52
2023-02-22T08:02:19.139Z,28.63
2023-02-22T08:04:50.098Z,27.42
2023-02-22T08:07:19.322Z,28.50
2023-02-22T08:09:48.628Z,28.67
2023-02-22T08:12:17.803Z,32.30
2023-02-22T08:14:49.918Z,31.95
2023-02-22T08:17:22.132Z,30.25
2023-02-22T08:20:01.221Z,29.50
2023-02-22T08:22:30.619Z,32.10
2023-02-22T08:25:00.541Z,29.05
2023-02-22T08:27:35.923Z,31.10
2023-02-22T08:30:06.414Z,31.30
2023-02-22T08:32:36.964Z,31.50
2023-02-22T08:35:09.687Z,30.77
2023-02-22T08:37:47.281Z,34.97
2023-02-22T08:40:20.253Z,32.90
2023-02-22T08:42:50.574Z,31.30
2023-02-22T08:45:19.873Z,31.15
2023-02-22T08:47:51.344Z,33.88
2023-02-22T08:50:37.206Z,35.83
2023-02-22T08:53:07.624Z,38.13
2023-02-22T08:55:40.306Z,34.90
2023-02-22T08:58:12.536Z,37.55
2023-02-22T09:00:45.963Z,34.70
2023-02-22T09:03:19.417Z,36.80
2023-02-22T09:05:56.763Z,32.85
2023-02-22T09:08:26.082Z,31.98
2023-02-22T09:11:05.851Z,32.28
2023-02-22T09:13:37.303Z,28.75
2023-02-22T09:16:07.649Z,27.98
2023-02-22T09:18:44.057Z,27.25
2023-02-22T09:21:19.258Z,21.98
2023-02-22T09:23:50.173Z,20.92
2023-02-22T09:26:23.949Z,24.05
2023-02-22T09:28:53.981Z,19.20
2023-02-22T09:31:28.372Z,21.58
2023-02-22T09:33:57.478Z,19.83
2023-02-22T09:36:28.579Z,17.48
2023-02-22T09:38:59.245Z,16.17
2023-02-22T09:41:38.237Z,18.70
2023-02-22T09:44:20.960Z,17.95
2023-02-22T09:46:54.867Z,11.63
2023-02-22T09:49:33.291Z,16.42
2023-02-22T09:52:08.047Z,12.60
2023-02-22T09:54:43.504Z,13.32
2023-02-22T09:57:17.544Z,12.73
2023-02-22T09:59:53.170Z,10.25
2023-02-22T10:02:32.399Z,14.70
2023-02-22T10:05:06.864Z,10.20
2023-02-22T10:07:47.887Z,12.93
2023-02-22T10:10:19.996Z,11.20
2023-02-22T10:13:00.233Z,10.80
2023-02-22T10:15:51.712Z,9.70
2023-02-22T10:18:51.596Z,10.43
2023-02-22T10:21:43.075Z,8.48
2023-02-22T10:24:27.540Z,13.15
2023-02-22T10:26:59.253Z,9.40
2023-02-22T10:29:34.999Z,8.63
2023-02-22T10:32:09.144Z,12.15
2023-02-22T10:34:51.655Z,7.80
2023-02-22T10:37:27.321Z,11.70
2023-02-22T10:40:06.607Z,14.57
2023-02-22T10:42:36.653Z,8.88
2023-02-22T10:45:25.691Z,8.43
2023-02-22T10:48:01.328Z,8.63
2023-02-22T10:50:35.280Z,14.10
2023-02-22T10:53:08.009Z,7.18
2023-02-22T10:56:15.197Z,9.27
2023-02-22T10:58:47.970Z,9.65
2023-02-22T11:01:29.041Z,10.13
2023-02-22T11:04:06.714Z,11.65
2023-02-22T11:06:38.750Z,9.20
2023-02-22T11:09:18.993Z,9.60
2023-02-22T11:11:51.872Z,10.88
2023-02-22T11:14:31.502Z,10.68
2023-02-22T11:17:02.730Z,9.25
2023-02-22T11:19:33.950Z,8.98
2023-02-22T11:22:14.884Z,8.80
2023-02-22T11:24:51.181Z,8.05
2023-02-22T11:27:32.814Z,7.82
2023-02-22T11:30:25.040Z,8.82
2023-02-22T11:32:58.431Z,10.63
2023-02-22T11:35:42.809Z,10.00
2023-02-22T11:38:18.864Z,9.55
2023-02-22T11:41:14.884Z,7.78
2023-02-22T11:43:48.028Z,8.13
2023-02-22T11:46:28.081Z,9.45
2023-02-22T11:49:02.254Z,9.10
2023-02-22T11:51:51.392Z,8.90
2023-02-22T11:54:40.507Z,13.25
2023-02-22T11:57:24.284Z,9.40
2023-02-22T12:00:10.132Z,8.98
2023-02-22T12:02:59.213Z,8.65
2023-02-22T12:06:02.016Z,10.15
2023-02-22T12:08:43.525Z,9.75
2023-02-22T12:11:22.937Z,8.18
2023-02-22T12:14:09.049Z,11.73
2023-02-22T12:17:02.089Z,10.95
2023-02-22T12:19:36.546Z,12.15
2023-02-22T12:22:11.575Z,8.50
2023-02-22T12:24:51.584Z,10.00
2023-02-22T12:27:29.721Z,8.50
2023-02-22T12:30:05.867Z,9.40
2023-02-22T12:32:45.281Z,9.30
2023-02-22T12:35:24.108Z,8.98
2023-02-22T12:38:08.517Z,12.07
2023-02-22T12:40:46.398Z,9.48
2023-02-22T12:43:22.520Z,11.02
2023-02-22T12:45:57.053Z,10.80
2023-02-22T12:48:39.757Z,10.38
2023-02-22T12:51:20.498Z,7.50
2023-02-22T12:54:01.333Z,9.00
2023-02-22T12:56:35.147Z,10.10
2023-02-22T12:59:12.494Z,9.93
2023-02-22T13:01:45.418Z,9.98
2023-02-22T13:04:21.535Z,8.60
2023-02-22T13:07:04.427Z,9.82
2023-02-22T13:09:55.738Z,11.75
2023-02-22T13:12:29.703Z,9.00
2023-02-22T13:15:10.923Z,10.07
2023-02-22T13:17:47.046Z,9.30
2023-02-22T13:20:24.122Z,9.27
2023-02-22T13:23:00.396Z,7.88
2023-02-22T13:25:38.075Z,10.13
2023-02-22T13:28:22.032Z,6.85
2023-02-22T13:31:09.058Z,9.50
2023-02-22T13:33:53.069Z,9.85
2023-02-22T13:36:37.961Z,9.05
2023-02-22T13:39:46.080Z,11.45
2023-02-22T13:42:34.427Z,8.73
2023-02-22T13:45:36.164Z,9.05
2023-02-22T13:48:27.986Z,8.90
2023-02-22T13:51:20.930Z,9.43
2023-02-22T13:53:58.091Z,9.40
2023-02-22T13:56:28.016Z,8.27
2023-02-22T13:59:02.515Z,9.27
2023-02-22T14:01:40.530Z,9.20
2023-02-22T14:04:39.212Z,8.15
2023-02-22T14:07:57.758Z,10.02
2023-02-22T14:10:48.602Z,13.75
2023-02-22T14:13:19.243Z,10.00
2023-02-22T14:16:21.084Z,11.23
2023-02-22T14:18:52.042Z,9.45
2023-02-22T14:21:22.780Z,9.50
2023-02-22T14:23:53.333Z,13.80
2023-02-22T14:26:28.206Z,12.73
2023-02-22T14:28:59.154Z,13.73
2023-02-22T14:31:36.637Z,13.82
2023-02-22T14:34:10.092Z,13.15
2023-02-22T14:36:53.210Z,10.18
2023-02-22T14:39:32.762Z,11.07
2023-02-22T14:42:08.225Z,12.30
2023-02-22T14:44:42.220Z,11.13
2023-02-22T14:47:20.179Z,11.63
2023-02-22T14:49:52.163Z,11.52
2023-02-22T14:52:25.835Z,12.15
2023-02-22T14:55:06.948Z,11.63
2023-02-22T14:57:48.515Z,13.55
2023-02-22T15:00:23.422Z,12.48
2023-02-22T15:02:57.398Z,11.25
2023-02-22T15:05:30.396Z,10.52
2023-02-22T15:08:01.205Z,11.45
2023-02-22T15:10:32.868Z,10.50
2023-02-22T15:13:11.365Z,11.57
2023-02-22T15:15:44.062Z,15.25
2023-02-22T15:18:22.582Z,12.05
2023-02-22T15:20:56.467Z,12.63
2023-02-22T15:23:30.408Z,10.82
2023-02-22T15:25:59.559Z,10.32
2023-02-22T15:28:32.528Z,11.38
2023-02-22T15:31:25.141Z,9.25
2023-02-22T15:33:55.531Z,11.30
2023-02-22T15:36:28.559Z,11.35
2023-02-22T15:38:57.634Z,10.32
2023-02-22T15:41:30.650Z,10.75
2023-02-22T15:44:14.189Z,10.50
2023-02-22T15:46:50.665Z,10.20
2023-02-22T15:49:23.471Z,11.27
2023-02-22T15:52:07.987Z,10.23
2023-02-22T15:54:46.333Z,12.38
2023-02-22T15:57:18.943Z,12.68
2023-02-22T15:59:53.857Z,12.52
2023-02-22T16:02:34.343Z,11.30
2023-02-22T16:05:07.002Z,13.20
2023-02-22T16:07:42.056Z,11.70
2023-02-22T16:10:51.218Z,12.63
2023-02-22T16:13:32.469Z,13.25
2023-02-22T16:16:05.314Z,11.85
2023-02-22T16:18:36.445Z,10.07
2023-02-22T16:21:11.988Z,14.38
2023-02-22T16:23:49.348Z,12.52
2023-02-22T16:26:25.322Z,13.25
2023-02-22T16:28:58.378Z,16.67
2023-02-22T16:31:33.887Z,13.02
2023-02-22T16:34:04.336Z,12.43
2023-02-22T16:36:49.120Z,12.30
2023-02-22T16:39:24.828Z,12.90
2023-02-22T16:42:11.493Z,15.50
2023-02-22T16:44:41.214Z,14.05
2023-02-22T16:47:14.023Z,12.50
2023-02-22T16:49:43.241Z,12.65
2023-02-22T16:52:16.032Z,14.50
2023-02-22T16:54:50.134Z,16.17
2023-02-22T16:57:22.807Z,12.13
2023-02-22T16:59:54.631Z,13.23
2023-02-22T17:02:27.989Z,12.70
2023-02-22T17:05:01.499Z,17.17
2023-02-22T17:07:30.982Z,14.88
2023-02-22T17:10:00.121Z,17.80
2023-02-22T17:12:32.158Z,18.88
2023-02-22T17:15:06.357Z,17.05
2023-02-22T17:17:40.832Z,15.88
2023-02-22T17:20:13.733Z,18.10
2023-02-22T17:22:43.111Z,19.02
2023-02-22T17:25:23.109Z,14.55
2023-02-22T17:27:52.409Z,15.25
2023-02-22T17:30:23.974Z,13.80
2023-02-22T17:33:03.683Z,15.80
2023-02-22T17:35:36.762Z,16.52
2023-02-22T17:38:07.302Z,15.75
2023-02-22T17:40:37.522Z,17.40
2023-02-22T17:43:09.156Z,17.40
2023-02-22T17:45:41.056Z,16.77
2023-02-22T17:48:11.505Z,16.50
2023-02-22T17:50:42.358Z,17.65
2023-02-22T17:53:12.127Z,15.93
2023-02-22T17:55:43.131Z,18.15
2023-02-22T17:58:14.869Z,18.63
2023-02-22T18:00:47.555Z,17.45
2023-02-22T18:03:25.939Z,14.68
2023-02-22T18:05:57.807Z,14.70
2023-02-22T18:08:36.945Z,18.13
2023-02-22T18:11:30.582Z,18.48
2023-02-22T18:14:02.041Z,22.65
2023-02-22T18:16:31.296Z,23.80
2023-02-22T18:19:03.324Z,22.45
2023-02-22T18:21:33.710Z,19.35
2023-02-22T18:24:03.090Z,19.75
2023-02-22T18:26:32.213Z,19.25
2023-02-22T18:29:02.310Z,24.30
2023-02-22T18:31:32.078Z,15.52
2023-02-22T18:34:02.968Z,15.30
2023-02-22T18:36:33.055Z,17.13
2023-02-22T18:39:03.444Z,14.32
2023-02-22T18:41:32.605Z,17.10
2023-02-22T18:44:03.316Z,14.75
2023-02-22T18:46:32.245Z,13.50
2023-02-22T18:49:02.744Z,15.13
2023-02-22T18:51:35.915Z,16.50
2023-02-22T18:54:05.451Z,17.67
2023-02-22T18:56:34.845Z,15.68
2023-02-22T18:59:07.533Z,17.08
2023-02-22T19:01:38.922Z,14.02
2023-02-22T19:04:11.994Z,15.65
2023-02-22T19:06:43.205Z,16.20
2023-02-22T19:09:12.621Z,16.33
2023-02-22T19:11:47.651Z,16.17
2023-02-22T19:14:20.706Z,14.63
2023-02-22T19:16:51.670Z,14.57
2023-02-22T19:19:26.114Z,14.27
2023-02-22T19:21:57.551Z,16.58
2023-02-22T19:24:26.995Z,14.52
2023-02-22T19:27:00.025Z,12.38
2023-02-22T19:29:31.336Z,15.38
2023-02-22T19:32:00.779Z,15.27
2023-02-22T19:34:31.598Z,15.10
2023-02-22T19:37:01.184Z,14.35
2023-02-22T19:39:31.069Z,13.38
2023-02-22T19:42:01.219Z,13.60
2023-02-22T19:44:30.369Z,15.07
2023-02-22T19:47:02.335Z,14.85
2023-02-22T19:49:36.758Z,15.93
2023-02-22T19:52:07.750Z,14.90
2023-02-22T19:54:36.983Z,13.95
2023-02-22T19:57:06.347Z,13.77
2023-02-22T19:59:35.597Z,15.05
2023-02-22T20:02:05.098Z,13.40
2023-02-22T20:04:37.571Z,17.73
2023-02-22T20:07:06.751Z,17.13
2023-02-22T20:09:37.404Z,12.38
2023-02-22T20:12:08.037Z,16.50
2023-02-22T20:14:37.444Z,12.02
2023-02-22T20:17:08.016Z,18.23
2023-02-22T20:19:41.066Z,15.20
2023-02-22T20:22:10.249Z,17.00
2023-02-22T20:24:39.761Z,15.30
2023-02-22T20:27:09.639Z,19.80
2023-02-22T20:29:39.042Z,16.13
2023-02-22T20:32:12.122Z,19.10
2023-02-22T20:34:47.193Z,14.43
2023-02-22T20:37:16.531Z,17.65
2023-02-22T20:39:45.837Z,17.20
2023-02-22T20:42:15.657Z,16.00
2023-02-22T20:44:45.228Z,16.85
2023-02-22T20:47:14.423Z,18.48
2023-02-22T20:49:45.419Z,16.25
2023-02-22T20:52:14.276Z,14.57
2023-02-22T20:54:50.437Z,19.33
2023-02-22T20:57:19.971Z,17.60
2023-02-22T20:59:49.142Z,15.07
2023-02-22T21:02:20.300Z,15.02
2023-02-22T21:04:51.425Z,14.18
2023-02-22T21:07:22.484Z,15.18
2023-02-22T21:09:52.700Z,18.70
2023-02-22T21:12:22.164Z,18.52
2023-02-22T21:14:51.700Z,15.73
2023-02-22T21:17:28.784Z,17.38
2023-02-22T21:19:59.806Z,19.85
2023-02-22T21:22:28.913Z,22.38
2023-02-22T21:24:58.067Z,22.67
2023-02-22T21:27:28.036Z,20.83
2023-02-22T21:30:00.000Z,23.58
2023-02-22T21:32:32.972Z,18.73
2023-02-22T21:35:03.564Z,24.33
2023-02-22T21:37:34.076Z,21.77
2023-02-22T21:40:08.416Z,20.15
2023-02-22T21:42:37.441Z,21.73
2023-02-22T21:45:08.451Z,21.98
2023-02-22T21:47:39.010Z,23.00
2023-02-22T21:50:10.767Z,23.75
2023-02-22T21:52:39.733Z,19.90
2023-02-22T21:55:09.967Z,22.02
2023-02-22T21:57:40.729Z,25.13
2023-02-22T22:00:17.416Z,26.40
2023-02-22T22:02:48.092Z,23.60
2023-02-22T22:05:33.896Z,28.40
2023-02-22T22:08:07.346Z,25.92
2023-02-22T22:10:37.682Z,25.55
2023-02-22T22:13:09.298Z,23.52
2023-02-22T22:15:38.575Z,19.75
2023-02-22T22:18:08.205Z,21.25
2023-02-22T22:20:39.212Z,20.67
2023-02-22T22:23:09.688Z,19.63
2023-02-22T22:25:39.159Z,20.58
2023-02-22T22:28:09.370Z,19.15
2023-02-22T22:30:39.332Z,21.38
2023-02-22T22:33:11.429Z,23.58
2023-02-22T22:35:42.738Z,20.92
2023-02-22T22:38:11.753Z,25.75
2023-02-22T22:40:40.649Z,23.98
2023-02-22T22:43:09.645Z,28.58
2023-02-22T22:45:39.119Z,34.13
2023-02-22T22:48:08.792Z,27.25
2023-02-22T22:50:37.977Z,29.63
2023-02-22T22:53:10.108Z,24.58
2023-02-22T22:55:42.307Z,24.95
2023-02-22T22:58:13.128Z,28.48
2023-02-22T23:00:47.813Z,25.25
2023-02-22T23:03:19.543Z,26.38
2023-02-22T23:05:49.011Z,22.33
2023-02-22T23:08:29.650Z,24.90
2023-02-22T23:10:59.110Z,28.50
2023-02-22T23:13:29.042Z,29.70
2023-02-22T23:15:59.198Z,31.17
2023-02-22T23:18:28.301Z,24.38
2023-02-22T23:21:05.543Z,29.17
2023-02-22T23:23:36.154Z,28.13
2023-02-22T23:26:11.920Z,29.02
2023-02-22T23:28:43.453Z,27.20
2023-02-22T23:31:16.916Z,29.52
2023-02-22T23:33:48.388Z,29.17
2023-02-22T23:36:18.997Z,25.23
2023-02-22T23:38:51.146Z,28.25
2023-02-22T23:41:20.676Z,29.40
2023-02-22T23:43:51.844Z,25.20
2023-02-22T23:46:21.055Z,26.25
2023-02-22T23:48:52.313Z,26.58
2023-02-22T23:51:25.677Z,30.98
2023-02-22T23:53:57.840Z,26.77
2023-02-22T23:56:30.069Z,31.05
2023-02-22T23:58:59.319Z,27.33
